Time;durP1;ratioP1;P1;durP2;ratioP2;P2;SDS_P1;SDS_P2;PMS_P1;PMS_P2;Temp;Humidity;BMP_temperature;BMP_pressure;BME280_temperature;BME280_humidity;BME280_pressure;Samples;Min_cycle;Max_cycle;Signal;HPM_P1;HPM_P2
2022/07/01 00:00:52;;;;;;;;;;;27.60;99.90;;;;;;5108345;28;19960;-73
2022/07/01 00:03:19;;;;;;;;;;;27.60;99.90;;;;;;5074576;28;20038;-73
2022/07/01 00:05:47;;;;;;;;;;;27.50;99.90;;;;;;5092633;28;20273;-73
2022/07/01 00:08:14;;;;;;;;;;;27.50;99.90;;;;;;5091681;28;20467;-73
2022/07/01 00:10:42;;;;;;;;;;;27.50;99.90;;;;;;5108587;28;19977;-73
2022/07/01 00:13:09;;;;;;;;;;;27.40;99.90;;;;;;5092705;28;19937;-73
2022/07/01 00:15:37;;;;;;;;;;;27.50;99.90;;;;;;5091290;28;19924;-73
2022/07/01 00:18:04;;;;;;;;;;;27.40;99.90;;;;;;5091622;28;19924;-73
2022/07/01 00:20:32;;;;;;;;;;;27.30;99.90;;;;;;5074604;28;19935;-73
2022/07/01 00:22:59;;;;;;;;;;;27.30;99.90;;;;;;5091862;28;19924;-73
2022/07/01 00:25:28;;;;;;;;;;;27.30;99.90;;;;;;5074845;28;20016;-73
2022/07/01 00:27:55;;;;;;;;;;;27.30;99.90;;;;;;5092790;28;19920;-73
2022/07/01 00:30:23;;;;;;;;;;;27.20;99.90;;;;;;5091556;28;19989;-73
2022/07/01 00:32:52;;;;;;;;;;;27.10;99.90;;;;;;5073854;28;20031;-74
2022/07/01 00:35:20;;;;;;;;;;;27.10;99.90;;;;;;5092680;28;20254;-74
2022/07/01 00:37:47;;;;;;;;;;;27.00;99.90;;;;;;5094115;28;20491;-73
2022/07/01 00:40:15;;;;;;;;;;;26.90;99.90;;;;;;5091758;28;20373;-73
2022/07/01 00:42:43;;;;;;;;;;;26.80;99.90;;;;;;5112374;28;19930;-73
2022/07/01 00:45:11;;;;;;;;;;;26.70;99.90;;;;;;5112185;28;19997;-73
2022/07/01 00:47:39;;;;;;;;;;;26.80;99.90;;;;;;5077025;28;20010;-73
2022/07/01 00:50:08;;;;;;;;;;;26.60;99.90;;;;;;5094285;28;19962;-73
2022/07/01 00:52:35;;;;;;;;;;;26.70;99.90;;;;;;5077428;28;19923;-73
2022/07/01 00:55:03;;;;;;;;;;;26.60;99.90;;;;;;5076483;28;19923;-73
2022/07/01 00:57:32;;;;;;;;;;;26.70;99.90;;;;;;5112245;28;19978;-72
2022/07/01 01:00:01;;;;;;;;;;;26.70;99.90;;;;;;5093740;28;19919;-73
2022/07/01 01:02:28;;;;;;;;;;;26.70;99.90;;;;;;5094505;28;19923;-73
2022/07/01 01:04:56;;;;;;;;;;;26.70;99.90;;;;;;5093570;28;20373;-72
2022/07/01 01:07:23;;;;;;;;;;;26.80;99.90;;;;;;5098309;28;19934;-72
2022/07/01 01:09:51;;;;;;;;;;;26.80;99.90;;;;;;5111890;28;19923;-72
2022/07/01 01:12:18;;;;;;;;;;;26.80;99.90;;;;;;5093902;28;19931;-73
2022/07/01 01:14:45;;;;;;;;;;;26.80;99.90;;;;;;5112017;28;19930;-73
2022/07/01 01:17:13;;;;;;;;;;;26.80;99.90;;;;;;5127808;27;19928;-72
2022/07/01 01:19:41;;;;;;;;;;;26.80;99.90;;;;;;5077384;28;20046;-72
2022/07/01 01:22:09;;;;;;;;;;;26.80;99.90;;;;;;5094070;28;19923;-72
2022/07/01 01:24:38;;;;;;;;;;;26.80;99.90;;;;;;5093691;28;19926;-73
2022/07/01 01:27:06;;;;;;;;;;;26.90;99.90;;;;;;5093189;28;20381;-72
2022/07/01 01:29:35;;;;;;;;;;;26.80;99.90;;;;;;5094075;28;20030;-72
2022/07/01 01:32:03;;;;;;;;;;;26.90;99.90;;;;;;5095689;28;19924;-72
2022/07/01 01:34:31;;;;;;;;;;;26.90;99.90;;;;;;5057054;28;19935;-72
2022/07/01 01:36:58;;;;;;;;;;;26.90;99.90;;;;;;5090167;28;19920;-72
2022/07/01 01:39:25;;;;;;;;;;;27.00;99.90;;;;;;5090904;28;20385;-72
2022/07/01 01:41:53;;;;;;;;;;;27.10;99.90;;;;;;5091069;28;19951;-72
2022/07/01 01:44:20;;;;;;;;;;;27.10;99.90;;;;;;5090858;28;20412;-72
2022/07/01 01:46:47;;;;;;;;;;;27.10;99.90;;;;;;5089872;28;20026;-72
2022/07/01 01:49:15;;;;;;;;;;;27.10;99.90;;;;;;5090976;28;20417;-72
2022/07/01 01:51:42;;;;;;;;;;;27.00;99.90;;;;;;5089720;28;19924;-72
2022/07/01 01:54:10;;;;;;;;;;;27.00;99.90;;;;;;5089751;28;19920;-72
2022/07/01 01:56:37;;;;;;;;;;;27.00;99.90;;;;;;5073656;28;19931;-73
2022/07/01 01:59:04;;;;;;;;;;;26.80;99.90;;;;;;5056016;28;19924;-73
2022/07/01 02:01:32;;;;;;;;;;;26.90;99.90;;;;;;5069043;28;20374;-72
2022/07/01 02:03:59;;;;;;;;;;;26.80;99.90;;;;;;5090519;28;19924;-72
2022/07/01 02:06:27;;;;;;;;;;;26.80;99.90;;;;;;5072518;28;19924;-72
2022/07/01 02:08:54;;;;;;;;;;;26.80;99.90;;;;;;5089833;28;20429;-72
2022/07/01 02:11:22;;;;;;;;;;;26.80;99.90;;;;;;5072375;28;19924;-72
2022/07/01 02:13:49;;;;;;;;;;;26.80;99.90;;;;;;5073118;28;20293;-72
2022/07/01 02:16:16;;;;;;;;;;;26.80;99.90;;;;;;5090472;28;20005;-72
2022/07/01 02:18:44;;;;;;;;;;;26.70;99.90;;;;;;5106312;28;20010;-72
2022/07/01 02:21:11;;;;;;;;;;;26.70;99.90;;;;;;5084268;28;19939;-73
2022/07/01 02:23:38;;;;;;;;;;;26.70;99.90;;;;;;5093367;28;20017;-72
2022/07/01 02:26:06;;;;;;;;;;;26.70;99.90;;;;;;5092732;28;19924;-72
2022/07/01 02:28:33;;;;;;;;;;;26.70;99.90;;;;;;5092629;28;20390;-72
2022/07/01 02:31:02;;;;;;;;;;;26.70;99.90;;;;;;5092797;28;19946;-72
2022/07/01 02:33:29;;;;;;;;;;;26.60;99.90;;;;;;5076186;28;20026;-73
2022/07/01 02:35:57;;;;;;;;;;;26.60;99.90;;;;;;5110666;28;19954;-72
2022/07/01 02:38:24;;;;;;;;;;;26.60;99.90;;;;;;5077015;28;19969;-72
2022/07/01 02:40:51;;;;;;;;;;;26.60;99.90;;;;;;5079803;28;20026;-72
2022/07/01 02:43:19;;;;;;;;;;;26.60;99.90;;;;;;5096597;28;20014;-72
2022/07/01 02:45:46;;;;;;;;;;;26.60;99.90;;;;;;5079586;28;20266;-72
2022/07/01 02:48:13;;;;;;;;;;;26.60;99.90;;;;;;5096427;28;19931;-73
2022/07/01 02:50:41;;;;;;;;;;;26.60;99.90;;;;;;5114749;28;19929;-72
2022/07/01 02:53:08;;;;;;;;;;;26.70;99.90;;;;;;5096377;28;20373;-72
2022/07/01 02:55:35;;;;;;;;;;;26.70;99.90;;;;;;5096237;28;19923;-72
2022/07/01 02:58:04;;;;;;;;;;;26.70;99.90;;;;;;5079602;28;19941;-72
2022/07/01 03:00:31;;;;;;;;;;;26.70;99.90;;;;;;5077473;28;19963;-72
2022/07/01 03:02:59;;;;;;;;;;;26.70;99.90;;;;;;5082681;28;19981;-72
2022/07/01 03:05:26;;;;;;;;;;;26.70;99.90;;;;;;5096310;28;19920;-72
2022/07/01 03:07:53;;;;;;;;;;;26.70;99.90;;;;;;5114622;28;20030;-72
2022/07/01 03:10:21;;;;;;;;;;;26.60;99.90;;;;;;5095920;28;19920;-72
2022/07/01 03:12:48;;;;;;;;;;;26.60;99.90;;;;;;5079683;28;19923;-72
2022/07/01 03:15:16;;;;;;;;;;;26.50;99.90;;;;;;5094357;28;20430;-72
2022/07/01 03:17:44;;;;;;;;;;;26.50;99.90;;;;;;5075663;28;19934;-72
2022/07/01 03:20:13;;;;;;;;;;;26.50;99.90;;;;;;5092723;28;20326;-72
2022/07/01 03:22:41;;;;;;;;;;;26.50;99.90;;;;;;5076035;28;19924;-72
2022/07/01 03:25:09;;;;;;;;;;;26.40;99.90;;;;;;5092189;28;20006;-72
2022/07/01 03:27:36;;;;;;;;;;;26.50;99.90;;;;;;5075452;28;19924;-72
2022/07/01 03:30:05;;;;;;;;;;;26.50;99.90;;;;;;5075318;28;20381;-72
2022/07/01 03:32:33;;;;;;;;;;;26.50;99.90;;;;;;5075489;28;19924;-72
2022/07/01 03:35:35;;;;;;;;;;;26.50;99.90;;;;;;5092925;28;19920;-72
2022/07/01 03:37:49;;;;;;;;;;;26.50;99.90;;;;;;5093139;28;19931;-72
2022/07/01 03:40:16;;;;;;;;;;;26.50;99.90;;;;;;5075265;28;19959;-72
2022/07/01 03:42:43;;;;;;;;;;;26.60;99.90;;;;;;5109731;28;19942;-72
2022/07/01 03:45:11;;;;;;;;;;;26.70;99.90;;;;;;5092202;28;19961;-72
2022/07/01 03:47:44;;;;;;;;;;;26.70;99.90;;;;;;5092037;28;19982;-72
2022/07/01 03:50:11;;;;;;;;;;;26.80;99.90;;;;;;5042145;28;19920;-72
2022/07/01 03:52:40;;;;;;;;;;;26.80;99.90;;;;;;5075392;28;19951;-72
2022/07/01 03:55:11;;;;;;;;;;;26.90;99.90;;;;;;5091518;28;20010;-72
2022/07/01 03:57:38;;;;;;;;;;;27.00;99.90;;;;;;5091812;28;20026;-72
2022/07/01 04:00:07;;;;;;;;;;;27.10;99.90;;;;;;5091658;28;19924;-72
2022/07/01 04:02:34;;;;;;;;;;;27.10;99.90;;;;;;5108617;28;20400;-73
2022/07/01 04:05:02;;;;;;;;;;;27.20;99.90;;;;;;5093320;28;19959;-72
2022/07/01 04:07:29;;;;;;;;;;;27.30;99.90;;;;;;5076114;28;19970;-72
2022/07/01 04:09:56;;;;;;;;;;;27.40;99.90;;;;;;5111593;28;19946;-72
2022/07/01 04:12:24;;;;;;;;;;;27.40;99.90;;;;;;5095541;28;19926;-72
2022/07/01 04:14:51;;;;;;;;;;;27.60;99.90;;;;;;5113187;28;19919;-72
2022/07/01 04:17:18;;;;;;;;;;;27.60;99.90;;;;;;5094760;28;20274;-72
2022/07/01 04:19:46;;;;;;;;;;;27.80;99.90;;;;;;5113413;28;19923;-72
2022/07/01 04:25:00;;;;;;;;;;;28.00;99.90;;;;;;5094932;28;20616;-72
2022/07/01 04:27:28;;;;;;;;;;;28.10;99.90;;;;;;5094339;28;19931;-72
2022/07/01 04:29:56;;;;;;;;;;;28.20;99.90;;;;;;5095025;28;20751;-73
2022/07/01 04:32:23;;;;;;;;;;;28.30;99.90;;;;;;5112226;28;20319;-72
2022/07/01 04:34:51;;;;;;;;;;;28.40;99.90;;;;;;5113044;28;20312;-72
2022/07/01 04:37:19;;;;;;;;;;;28.50;99.90;;;;;;5094087;28;19923;-72
2022/07/01 04:39:47;;;;;;;;;;;28.60;99.90;;;;;;5094180;28;19924;-72
2022/07/01 04:42:15;;;;;;;;;;;28.70;99.90;;;;;;5094514;28;19934;-72
2022/07/01 04:44:42;;;;;;;;;;;28.70;99.90;;;;;;5112376;28;19924;-73
2022/07/01 04:47:10;;;;;;;;;;;28.90;99.90;;;;;;5111148;28;19920;-72
2022/07/01 04:49:38;;;;;;;;;;;28.90;99.90;;;;;;5077416;28;20373;-72
2022/07/01 04:52:05;;;;;;;;;;;29.00;99.90;;;;;;5094364;28;19998;-72
2022/07/01 04:54:33;;;;;;;;;;;29.10;99.90;;;;;;5093780;28;19927;-72
2022/07/01 04:57:00;;;;;;;;;;;29.20;99.90;;;;;;5111204;28;19924;-72
2022/07/01 04:59:28;;;;;;;;;;;29.30;99.90;;;;;;5111917;28;20349;-72
2022/07/01 05:01:58;;;;;;;;;;;29.40;99.90;;;;;;5110394;28;19954;-72
2022/07/01 05:04:27;;;;;;;;;;;29.50;99.90;;;;;;5077104;28;20014;-73
2022/07/01 05:06:55;;;;;;;;;;;29.60;99.90;;;;;;5093605;28;19946;-73
2022/07/01 05:09:23;;;;;;;;;;;29.70;99.90;;;;;;5109680;28;20377;-72
2022/07/01 05:11:55;;;;;;;;;;;29.80;99.90;;;;;;5076727;28;19923;-72
2022/07/01 05:14:23;;;;;;;;;;;29.90;99.90;;;;;;5093899;28;19930;-72
2022/07/01 05:16:50;;;;;;;;;;;30.00;99.90;;;;;;5076620;28;20301;-72
2022/07/01 05:22:04;;;;;;;;;;;30.20;99.90;;;;;;5110639;28;19924;-72
2022/07/01 05:24:32;;;;;;;;;;;30.30;99.90;;;;;;5111011;28;19955;-73
2022/07/01 05:27:00;;;;;;;;;;;30.40;99.90;;;;;;5093093;28;19924;-72
2022/07/01 05:29:27;;;;;;;;;;;30.50;99.90;;;;;;5060106;28;19943;-72
2022/07/01 05:31:56;;;;;;;;;;;30.60;99.90;;;;;;5093737;28;19924;-73
2022/07/01 05:34:23;;;;;;;;;;;30.70;99.70;;;;;;5110563;28;19930;-72
2022/07/01 05:36:50;;;;;;;;;;;30.80;99.00;;;;;;5111339;28;20288;-72
2022/07/01 05:39:18;;;;;;;;;;;30.80;98.70;;;;;;5076416;28;19924;-72
2022/07/01 05:41:45;;;;;;;;;;;30.90;97.50;;;;;;5093580;28;19920;-73
2022/07/01 05:44:13;;;;;;;;;;;30.90;96.90;;;;;;5076341;28;19996;-73
2022/07/01 05:46:40;;;;;;;;;;;31.00;96.70;;;;;;5076787;28;20022;-73
2022/07/01 05:49:08;;;;;;;;;;;31.00;96.70;;;;;;5092781;28;19930;-73
2022/07/01 05:51:36;;;;;;;;;;;31.10;95.60;;;;;;5111503;28;19924;-73
2022/07/01 05:54:04;;;;;;;;;;;31.10;94.70;;;;;;5093425;28;19924;-73
2022/07/01 05:56:32;;;;;;;;;;;31.20;94.10;;;;;;5109023;28;20398;-73
2022/07/01 05:58:59;;;;;;;;;;;31.20;94.10;;;;;;5111182;28;20647;-72
2022/07/01 06:01:27;;;;;;;;;;;31.40;93.70;;;;;;5092713;28;20384;-73
2022/07/01 06:03:54;;;;;;;;;;;31.60;93.00;;;;;;5111421;28;19923;-73
2022/07/01 06:06:22;;;;;;;;;;;31.80;92.50;;;;;;5093441;28;20022;-73
2022/07/01 06:08:49;;;;;;;;;;;31.90;92.10;;;;;;5092717;28;20023;-73
2022/07/01 06:11:16;;;;;;;;;;;32.00;91.70;;;;;;5092981;28;19920;-73
2022/07/01 06:13:44;;;;;;;;;;;32.20;92.10;;;;;;5076207;28;20389;-72
2022/07/01 06:16:11;;;;;;;;;;;32.20;91.20;;;;;;5109468;28;20016;-72
2022/07/01 06:18:38;;;;;;;;;;;32.10;88.50;;;;;;5111194;28;19967;-73
2022/07/01 06:21:06;;;;;;;;;;;32.20;90.40;;;;;;5092745;28;19946;-73
2022/07/01 06:23:33;;;;;;;;;;;32.30;90.70;;;;;;5093048;28;20014;-73
2022/07/01 06:26:01;;;;;;;;;;;32.40;90.00;;;;;;5111171;28;20373;-73
2022/07/01 06:28:29;;;;;;;;;;;32.40;90.30;;;;;;5111119;28;20570;-73
2022/07/01 06:30:57;;;;;;;;;;;32.60;88.70;;;;;;5111129;28;19969;-73
2022/07/01 06:33:27;;;;;;;;;;;32.50;88.20;;;;;;5059658;28;19930;-73
2022/07/01 06:35:54;;;;;;;;;;;32.60;87.80;;;;;;5110558;28;19923;-73
2022/07/01 06:38:21;;;;;;;;;;;32.60;87.90;;;;;;5076280;28;20369;-73
2022/07/01 06:41:26;;;;;;;;;;;32.70;87.50;;;;;;5110761;28;20293;-74
2022/07/01 06:43:36;;;;;;;;;;;32.80;89.20;;;;;;5092612;28;20361;-73
2022/07/01 06:46:04;;;;;;;;;;;32.90;88.40;;;;;;5110678;28;19920;-72
2022/07/01 06:48:31;;;;;;;;;;;33.10;87.00;;;;;;5111061;28;19924;-73
2022/07/01 06:50:58;;;;;;;;;;;32.90;87.30;;;;;;5110712;28;20381;-73
2022/07/01 06:53:26;;;;;;;;;;;33.00;87.20;;;;;;5107049;28;19924;-73
2022/07/01 06:55:53;;;;;;;;;;;33.30;86.50;;;;;;5092784;28;19923;-73
2022/07/01 06:58:21;;;;;;;;;;;33.40;86.20;;;;;;5110998;28;19924;-74
2022/07/01 07:00:48;;;;;;;;;;;33.30;85.40;;;;;;5092882;28;20377;-73
2022/07/01 07:03:15;;;;;;;;;;;33.50;85.70;;;;;;5110498;28;19923;-73
2022/07/01 07:05:43;;;;;;;;;;;33.50;86.00;;;;;;5092245;28;19919;-72
2022/07/01 07:08:10;;;;;;;;;;;33.40;85.40;;;;;;5075527;28;20370;-73
2022/07/01 07:10:38;;;;;;;;;;;33.40;84.90;;;;;;5109785;28;19924;-73
2022/07/01 07:13:05;;;;;;;;;;;33.50;84.30;;;;;;5092577;28;20007;-73
2022/07/01 07:15:32;;;;;;;;;;;33.70;84.10;;;;;;5100137;28;19943;-73
2022/07/01 07:18:00;;;;;;;;;;;33.90;84.70;;;;;;5091946;28;19946;-73
2022/07/01 07:20:28;;;;;;;;;;;34.10;84.50;;;;;;5110612;28;20002;-73
2022/07/01 07:22:55;;;;;;;;;;;34.30;85.20;;;;;;5092644;28;19931;-73
2022/07/01 07:25:22;;;;;;;;;;;34.30;85.60;;;;;;5112384;28;19972;-73
2022/07/01 07:27:50;;;;;;;;;;;34.40;85.90;;;;;;5079218;28;20026;-73
2022/07/01 07:30:17;;;;;;;;;;;34.30;85.00;;;;;;5096271;28;19947;-74
2022/07/01 07:32:45;;;;;;;;;;;34.30;84.50;;;;;;5062463;28;19923;-73
2022/07/01 07:35:12;;;;;;;;;;;34.40;84.70;;;;;;5078770;28;19970;-73
2022/07/01 07:37:40;;;;;;;;;;;34.40;85.80;;;;;;5096046;28;19930;-73
2022/07/01 07:40:09;;;;;;;;;;;34.50;86.30;;;;;;5095072;28;19931;-73
2022/07/01 07:42:37;;;;;;;;;;;34.60;86.20;;;;;;5073616;28;20388;-73
2022/07/01 07:45:06;;;;;;;;;;;34.80;85.70;;;;;;5075312;28;19928;-74
2022/07/01 07:47:34;;;;;;;;;;;34.60;85.80;;;;;;5091899;28;20650;-73
2022/07/01 07:50:02;;;;;;;;;;;34.80;86.10;;;;;;5092532;28;20399;-73
2022/07/01 07:52:29;;;;;;;;;;;34.90;85.80;;;;;;5092215;28;20670;-73
2022/07/01 07:54:57;;;;;;;;;;;35.10;85.60;;;;;;5075898;28;19985;-73
2022/07/01 07:57:24;;;;;;;;;;;35.30;85.20;;;;;;5092845;28;19997;-73
2022/07/01 07:59:52;;;;;;;;;;;35.50;85.10;;;;;;5058465;28;20575;-74
2022/07/01 08:02:19;;;;;;;;;;;35.70;84.80;;;;;;5075084;28;20664;-73
2022/07/01 08:04:50;;;;;;;;;;;35.80;83.70;;;;;;5083778;28;19931;-73
2022/07/01 08:07:18;;;;;;;;;;;35.90;83.70;;;;;;5057763;28;19963;-73
2022/07/01 08:09:47;;;;;;;;;;;35.90;83.20;;;;;;5075095;28;19924;-73
2022/07/01 08:12:15;;;;;;;;;;;35.80;82.80;;;;;;5091757;28;20050;-73
2022/07/01 08:14:43;;;;;;;;;;;35.50;81.20;;;;;;5108246;28;19955;-73
2022/07/01 08:17:11;;;;;;;;;;;35.00;82.00;;;;;;5091326;28;19924;-73
2022/07/01 08:19:38;;;;;;;;;;;35.00;82.40;;;;;;5092966;28;19924;-74
2022/07/01 08:22:06;;;;;;;;;;;35.10;82.10;;;;;;5108711;28;20652;-73
2022/07/01 08:24:33;;;;;;;;;;;35.20;81.50;;;;;;5058371;28;20378;-73
2022/07/01 08:27:01;;;;;;;;;;;35.20;79.90;;;;;;5092863;28;19927;-73
2022/07/01 08:29:28;;;;;;;;;;;35.00;79.70;;;;;;5091027;28;19920;-74
2022/07/01 08:31:55;;;;;;;;;;;35.10;79.20;;;;;;5092592;28;19960;-74
2022/07/01 08:34:23;;;;;;;;;;;35.10;78.90;;;;;;5092414;28;20389;-73
2022/07/01 08:36:50;;;;;;;;;;;35.30;79.50;;;;;;5084655;28;20289;-73
2022/07/01 08:39:18;;;;;;;;;;;35.60;79.20;;;;;;5077271;28;19969;-73
2022/07/01 08:41:45;;;;;;;;;;;35.70;78.10;;;;;;5111669;28;19934;-74
2022/07/01 08:44:12;;;;;;;;;;;35.40;77.80;;;;;;5078061;28;19930;-74
2022/07/01 08:46:40;;;;;;;;;;;35.50;77.10;;;;;;5094123;28;20289;-73
2022/07/01 08:49:07;;;;;;;;;;;35.50;77.30;;;;;;5094363;28;20448;-74
2022/07/01 08:51:35;;;;;;;;;;;35.40;77.50;;;;;;5094428;28;20369;-74
2022/07/01 08:54:02;;;;;;;;;;;35.30;77.70;;;;;;5111221;28;20022;-73
2022/07/01 08:56:42;;;;;;;;;;;35.00;78.00;;;;;;5112554;28;19920;-74
2022/07/01 08:59:10;;;;;;;;;;;35.00;78.00;;;;;;5077170;28;19926;-74
2022/07/01 09:01:38;;;;;;;;;;;35.10;76.50;;;;;;5111416;28;19970;-74
2022/07/01 09:04:33;;;;;;;;;;;35.20;76.80;;;;;;5076976;28;20331;-74
2022/07/01 09:07:05;;;;;;;;;;;35.50;76.80;;;;;;5091092;28;19931;-74
2022/07/01 09:09:36;;;;;;;;;;;35.60;75.20;;;;;;5093308;28;19962;-74
2022/07/01 09:12:04;;;;;;;;;;;35.80;75.40;;;;;;5076705;28;19923;-74
2022/07/01 09:14:33;;;;;;;;;;;36.00;74.50;;;;;;5076981;28;19930;-74
2022/07/01 09:17:04;;;;;;;;;;;36.20;74.70;;;;;;5112190;28;19923;-74
2022/07/01 09:19:33;;;;;;;;;;;36.40;75.20;;;;;;5110866;28;19969;-74
2022/07/01 09:22:01;;;;;;;;;;;36.50;75.30;;;;;;5111863;28;20384;-74
2022/07/01 09:24:31;;;;;;;;;;;36.70;73.70;;;;;;5094095;28;20042;-74
2022/07/01 09:27:01;;;;;;;;;;;36.80;73.60;;;;;;5093826;28;19927;-74
2022/07/01 09:29:33;;;;;;;;;;;36.90;72.80;;;;;;5075476;28;19930;-74
2022/07/01 09:32:03;;;;;;;;;;;36.90;73.20;;;;;;5093265;28;19919;-74
2022/07/01 09:34:34;;;;;;;;;;;36.80;73.50;;;;;;5093544;28;19926;-74
2022/07/01 09:37:02;;;;;;;;;;;36.90;73.20;;;;;;5056316;28;19920;-74
2022/07/01 09:39:41;;;;;;;;;;;36.90;73.20;;;;;;5083769;28;20396;-74
2022/07/01 09:42:08;;;;;;;;;;;37.00;72.90;;;;;;5089969;28;20010;-74
2022/07/01 09:44:50;;;;;;;;;;;36.60;73.70;;;;;;5090283;28;19928;-74
2022/07/01 09:47:21;;;;;;;;;;;36.50;74.00;;;;;;5089942;28;19967;-75
2022/07/01 09:49:49;;;;;;;;;;;36.20;73.60;;;;;;5056883;28;19927;-74
2022/07/01 09:52:18;;;;;;;;;;;36.10;75.10;;;;;;5090343;28;20255;-74
2022/07/01 09:54:47;;;;;;;;;;;36.10;76.10;;;;;;5056812;28;19924;-74
2022/07/01 09:57:14;;;;;;;;;;;36.00;76.90;;;;;;5089689;28;20293;-74
2022/07/01 09:59:42;;;;;;;;;;;36.20;76.40;;;;;;5072839;28;20295;-74
2022/07/01 10:02:10;;;;;;;;;;;36.10;75.70;;;;;;5073379;28;19940;-74
2022/07/01 10:04:47;;;;;;;;;;;35.90;75.40;;;;;;5081550;28;19948;-74
2022/07/01 10:07:33;;;;;;;;;;;35.90;76.10;;;;;;5073009;28;19928;-74
2022/07/01 10:10:13;;;;;;;;;;;35.90;78.10;;;;;;5106609;28;19927;-74
2022/07/01 10:12:43;;;;;;;;;;;36.00;75.90;;;;;;5073108;28;19931;-74
2022/07/01 10:15:15;;;;;;;;;;;36.10;77.50;;;;;;5072726;28;20481;-74
2022/07/01 10:17:44;;;;;;;;;;;36.30;77.50;;;;;;5073071;28;19920;-74
2022/07/01 10:20:13;;;;;;;;;;;36.50;77.60;;;;;;5073359;28;19959;-74
2022/07/01 10:22:44;;;;;;;;;;;36.50;77.00;;;;;;5072838;28;19920;-74
2022/07/01 10:25:30;;;;;;;;;;;36.70;77.00;;;;;;5089550;28;20003;-74
2022/07/01 10:28:17;;;;;;;;;;;36.70;75.50;;;;;;5057815;28;19930;-74
2022/07/01 10:30:50;;;;;;;;;;;36.60;75.60;;;;;;5072751;28;19934;-74
2022/07/01 10:33:31;;;;;;;;;;;36.20;75.70;;;;;;5055943;28;20498;-74
2022/07/01 10:36:17;;;;;;;;;;;36.00;75.90;;;;;;5072384;28;19963;-74
2022/07/01 10:39:06;;;;;;;;;;;35.80;76.20;;;;;;5090518;28;20348;-74
2022/07/01 10:41:35;;;;;;;;;;;35.80;76.00;;;;;;5090641;28;19924;-74
2022/07/01 10:44:03;;;;;;;;;;;35.70;75.70;;;;;;5089231;28;20007;-74
2022/07/01 10:46:40;;;;;;;;;;;35.70;76.00;;;;;;5073031;28;20000;-74
2022/07/01 10:49:08;;;;;;;;;;;35.60;75.80;;;;;;5090423;28;19924;-74
2022/07/01 10:51:55;;;;;;;;;;;35.60;75.50;;;;;;5089425;28;19954;-74
2022/07/01 10:54:41;;;;;;;;;;;35.50;75.40;;;;;;5088814;28;19924;-74
2022/07/01 10:57:15;;;;;;;;;;;35.60;75.20;;;;;;5105117;28;20344;-74
2022/07/01 10:59:43;;;;;;;;;;;35.70;74.60;;;;;;5077472;28;19924;-75
2022/07/01 11:02:11;;;;;;;;;;;35.60;74.50;;;;;;5074769;28;19927;-75
2022/07/01 11:04:39;;;;;;;;;;;35.70;74.30;;;;;;5058641;28;20614;-75
2022/07/01 11:07:07;;;;;;;;;;;35.60;74.30;;;;;;5092683;28;19920;-75
2022/07/01 11:09:35;;;;;;;;;;;35.60;73.90;;;;;;5075608;28;19978;-75
2022/07/01 11:12:03;;;;;;;;;;;35.70;73.30;;;;;;5092378;28;19974;-75
2022/07/01 11:14:33;;;;;;;;;;;35.80;73.70;;;;;;5095718;28;20384;-75
2022/07/01 11:17:02;;;;;;;;;;;36.00;72.50;;;;;;5094982;28;20384;-75
2022/07/01 11:19:29;;;;;;;;;;;35.90;72.50;;;;;;5112682;28;19923;-75
2022/07/01 11:21:57;;;;;;;;;;;36.10;72.70;;;;;;5095752;28;20293;-75
2022/07/01 11:24:24;;;;;;;;;;;36.30;72.30;;;;;;5095906;28;20412;-75
2022/07/01 11:26:55;;;;;;;;;;;36.30;71.80;;;;;;5095163;28;20266;-75
2022/07/01 11:29:27;;;;;;;;;;;36.30;71.90;;;;;;5078395;28;19923;-74
2022/07/01 11:31:54;;;;;;;;;;;36.40;71.60;;;;;;5095359;28;19923;-75
2022/07/01 11:34:26;;;;;;;;;;;36.20;71.00;;;;;;5095709;28;19930;-75
2022/07/01 11:39:43;;;;;;;;;;;35.90;71.10;;;;;;5113135;28;19924;-74
2022/07/01 11:42:11;;;;;;;;;;;35.90;71.40;;;;;;5112077;28;19946;-74
2022/07/01 11:44:39;;;;;;;;;;;35.90;71.20;;;;;;5113217;28;19965;-74
2022/07/01 11:47:07;;;;;;;;;;;35.80;71.30;;;;;;5094748;28;19927;-74
2022/07/01 11:49:43;;;;;;;;;;;35.80;71.30;;;;;;5095102;28;19927;-74
2022/07/01 11:52:11;;;;;;;;;;;35.90;71.40;;;;;;5095219;28;19938;-75
2022/07/01 11:54:39;;;;;;;;;;;35.70;71.20;;;;;;5078427;28;19923;-74
2022/07/01 11:57:10;;;;;;;;;;;35.80;71.60;;;;;;5094468;28;20297;-74
2022/07/01 11:59:40;;;;;;;;;;;35.70;71.50;;;;;;5094623;28;19924;-74
2022/07/01 12:02:10;;;;;;;;;;;35.70;70.90;;;;;;5102334;28;19924;-74
2022/07/01 12:04:38;;;;;;;;;;;35.70;70.80;;;;;;5095536;28;19937;-74
2022/07/01 12:07:06;;;;;;;;;;;35.70;70.80;;;;;;5095358;28;19923;-74
2022/07/01 12:09:34;;;;;;;;;;;35.60;71.00;;;;;;5113398;28;19946;-73
2022/07/01 12:12:03;;;;;;;;;;;35.60;70.80;;;;;;5090401;28;20652;-73
2022/07/01 12:14:32;;;;;;;;;;;35.60;70.90;;;;;;5091679;28;19920;-73
2022/07/01 12:17:02;;;;;;;;;;;35.60;70.60;;;;;;5091596;28;19927;-73
2022/07/01 12:19:33;;;;;;;;;;;35.50;70.40;;;;;;5075152;28;19927;-73
2022/07/01 12:22:04;;;;;;;;;;;35.50;70.70;;;;;;5108567;28;19928;-74
2022/07/01 12:24:32;;;;;;;;;;;35.40;70.70;;;;;;5074711;28;19924;-74
2022/07/01 12:26:59;;;;;;;;;;;35.30;72.20;;;;;;5075072;28;19931;-73
2022/07/01 12:29:28;;;;;;;;;;;35.40;72.50;;;;;;5092488;28;19928;-74
2022/07/01 12:31:57;;;;;;;;;;;35.30;72.40;;;;;;5092878;28;19928;-73
2022/07/01 12:34:42;;;;;;;;;;;35.30;72.20;;;;;;5084843;28;19923;-74
2022/07/01 12:37:14;;;;;;;;;;;35.10;71.80;;;;;;5092033;28;20072;-73
2022/07/01 12:39:46;;;;;;;;;;;35.10;72.80;;;;;;5089652;28;20351;-73
2022/07/01 12:42:23;;;;;;;;;;;35.00;73.30;;;;;;5074418;28;19920;-73
2022/07/01 12:44:51;;;;;;;;;;;35.10;73.00;;;;;;5092289;28;19974;-73
2022/07/01 12:47:20;;;;;;;;;;;35.00;73.30;;;;;;5090738;28;19962;-73
2022/07/01 12:49:48;;;;;;;;;;;35.10;73.00;;;;;;5078909;28;19923;-73
2022/07/01 12:52:25;;;;;;;;;;;35.20;72.50;;;;;;5088482;28;19926;-73
2022/07/01 12:54:55;;;;;;;;;;;35.10;72.10;;;;;;5076625;28;20635;-73
2022/07/01 12:57:32;;;;;;;;;;;35.30;73.00;;;;;;5106383;28;19924;-73
2022/07/01 13:00:04;;;;;;;;;;;35.30;72.40;;;;;;5090434;28;19930;-74
2022/07/01 13:02:32;;;;;;;;;;;35.30;72.00;;;;;;5065884;28;20063;-73
2022/07/01 13:04:59;;;;;;;;;;;35.40;72.10;;;;;;5070861;28;19930;-73
2022/07/01 13:07:26;;;;;;;;;;;35.40;71.70;;;;;;5111907;28;19961;-73
2022/07/01 13:09:54;;;;;;;;;;;35.40;71.50;;;;;;5105656;28;19989;-74
2022/07/01 13:12:21;;;;;;;;;;;35.40;71.70;;;;;;5077538;28;20010;-73
2022/07/01 13:14:49;;;;;;;;;;;35.30;71.30;;;;;;5076290;28;20366;-73
2022/07/01 13:17:16;;;;;;;;;;;35.20;72.40;;;;;;5091678;28;19935;-74
2022/07/01 13:19:44;;;;;;;;;;;35.10;72.10;;;;;;5089024;28;19966;-74
2022/07/01 13:22:11;;;;;;;;;;;35.10;72.50;;;;;;5110580;28;19930;-74
2022/07/01 13:24:39;;;;;;;;;;;35.10;72.20;;;;;;5104578;27;20391;-73
2022/07/01 13:27:06;;;;;;;;;;;35.20;72.10;;;;;;5090055;28;19928;-74
2022/07/01 13:29:34;;;;;;;;;;;35.30;72.00;;;;;;5097223;28;20012;-74
2022/07/01 13:32:02;;;;;;;;;;;35.30;71.60;;;;;;5093960;28;20010;-74
2022/07/01 13:34:37;;;;;;;;;;;35.20;71.30;;;;;;5077554;28;19927;-74
2022/07/01 13:37:07;;;;;;;;;;;35.30;71.00;;;;;;5111727;28;19928;-73
2022/07/01 13:39:36;;;;;;;;;;;35.30;70.80;;;;;;5093659;28;19962;-73
2022/07/01 13:42:03;;;;;;;;;;;35.30;71.50;;;;;;5111660;28;20014;-73
2022/07/01 13:44:31;;;;;;;;;;;35.40;71.70;;;;;;5076541;28;19980;-74
2022/07/01 13:47:02;;;;;;;;;;;35.30;71.10;;;;;;5076585;28;19924;-74
2022/07/01 13:49:29;;;;;;;;;;;35.20;70.90;;;;;;5060359;28;20350;-73
2022/07/01 13:51:57;;;;;;;;;;;35.20;71.40;;;;;;5076663;28;19929;-74
2022/07/01 13:54:25;;;;;;;;;;;35.30;71.20;;;;;;5111336;28;19930;-74
2022/07/01 13:56:52;;;;;;;;;;;35.30;71.20;;;;;;5093110;28;19919;-73
2022/07/01 13:59:20;;;;;;;;;;;35.30;71.00;;;;;;5111511;28;20077;-73
2022/07/01 14:01:47;;;;;;;;;;;35.20;71.10;;;;;;5092578;28;19931;-73
2022/07/01 14:04:15;;;;;;;;;;;35.20;71.60;;;;;;5092906;28;19942;-73
2022/07/01 14:06:43;;;;;;;;;;;35.20;71.20;;;;;;5127073;27;20381;-74
2022/07/01 14:09:10;;;;;;;;;;;35.30;71.20;;;;;;5076182;28;19930;-74
2022/07/01 14:11:38;;;;;;;;;;;35.30;70.70;;;;;;5093253;28;19923;-74
2022/07/01 14:14:06;;;;;;;;;;;35.20;70.80;;;;;;5092921;28;19984;-74
2022/07/01 14:16:34;;;;;;;;;;;35.00;70.80;;;;;;5092876;28;19973;-73
2022/07/01 14:19:01;;;;;;;;;;;35.00;70.80;;;;;;5109990;28;19923;-73
2022/07/01 14:21:29;;;;;;;;;;;35.10;70.20;;;;;;5076048;28;19924;-73
2022/07/01 14:23:58;;;;;;;;;;;35.10;70.00;;;;;;5092500;28;19923;-74
2022/07/01 14:26:26;;;;;;;;;;;35.10;69.70;;;;;;5090868;28;19924;-73
2022/07/01 14:28:53;;;;;;;;;;;35.10;69.30;;;;;;5089950;28;19924;-74
2022/07/01 14:31:21;;;;;;;;;;;35.00;68.70;;;;;;5072466;28;19920;-73
2022/07/01 14:33:48;;;;;;;;;;;35.00;68.70;;;;;;5092014;28;19927;-73